• Join FlightAware (Why Join?)
  • Login
  • US Flag 
10:09PM EDT


 

Airport Tracker/Info


-or-


 

Live Flight TrackerFlight Track Log ✈ FLG3780 ✈ 29-Apr-2013 ✈ KALB - KDTW

Flight Track Log - Related Links

Times and Time Zones

All times are in EDT time to prevent confusion due to time zone crossing. See the FLG3780 flight status page for this flight to view local times or setup timezone preferences in your user account.

Time Position Orientation Groundspeed Altitude Reporting Facility
EDT Latitude Longitude Course Direction KTS MPH feet Rate Location/Type
09:22AM 42.7278 -73.8081 304° West 142 163 1,300  Level Boston Center
09:23AM 42.7194 -73.8078 179° South 144 166 1,700 1,980 Climbing Boston Center
09:24AM 42.6772 -73.8408 210° Southwest 211 243 3,900 2,400 Climbing Boston Center
09:25AM 42.8097 -74.1674 281° West  Level FlightAware Approximate
09:25AM 42.7203 -73.9067 312° West 264 304 6,500  Level Boston Center
09:26AM 42.8278 -74.2941 281° West  Level FlightAware Approximate
09:26AM 42.7819 -73.9761 320° Northwest 278 320 9,300  Level Boston Center
09:27AM 42.8479 -74.4203 283° West  Level FlightAware Approximate
09:27AM 42.8456 -74.0458 321° Northwest 289 333 11,800  Level Boston Center
09:28AM 42.8722 -74.5444 304° West  Level FlightAware Approximate
09:28AM 42.9111 -74.1125 323° Northwest 298 343 13,500  Level Boston Center
09:29AM 42.9578 -74.2019 306° West 310 357 14,800 1,260 Climbing Boston Center
09:30AM 42.9744 -74.3386 280° West 310 357 16,100 1,020 Climbing Boston Center
09:31AM 42.9869 -74.4581 278° West 344 396 16,900 900 Climbing Boston Center
09:32AM 43.0050 -74.6092 279° West 369 425 17,900 1,080 Climbing Boston Center
09:33AM 43.0169 -74.7489 277° West 374 430 19,100 1,200 Climbing Boston Center
09:34AM 43.0558 -74.8781 292° West 368 423 20,400 1,260 Climbing Boston Center
09:35AM 43.0989 -75.0050 295° West 368 423 21,700 1,260 Climbing Boston Center
09:36AM 43.1397 -75.1319 294° West 373 429 23,000 1,140 Climbing Boston Center
09:37AM 43.1803 -75.2647 293° West 373 429 24,000 840 Climbing Boston Center
09:38AM 43.2186 -75.4006 291° West 378 435 24,700 720 Climbing Boston Center
09:39AM 43.2356 -75.5494 279° West 384 442 25,500 660 Climbing Boston Center
09:40AM 43.2481 -75.6956 277° West 391 450 26,100 540 Climbing Boston Center
09:41AM 43.2322 -75.8772 263° West 391 450 26,800 480 Climbing Boston Center
09:43AM 43.2019 -76.1853 262° West 412 474 27,800 360 Climbing Cleveland Center
09:44AM 43.1850 -76.3403 262° West 412 474 28,000 60 Climbing Cleveland Center
09:45AM 43.1697 -76.4953 262° West 412 474 28,000  Level Cleveland Center
09:46AM 43.1542 -76.6528 262° West 412 474 28,000  Level Cleveland Center
09:47AM 43.1367 -76.8133 262° West 412 474 28,000  Level Cleveland Center
09:48AM 43.1189 -76.9764 262° West 425 489 28,000  Level Cleveland Center
09:49AM 43.1011 -77.1425 262° West 437 503 28,000  Level Cleveland Center
09:50AM 43.0850 -77.3056 262° West 437 503 28,000  Level Cleveland Center
09:51AM 43.0644 -77.4686 260° West 437 503 28,000  Level Cleveland Center
09:52AM 43.0478 -77.6342 262° West 442 509 28,000  Level Cleveland Center
09:53AM 43.0311 -77.7997 262° West 447 514 28,000  Level Cleveland Center
09:54AM 43.0100 -77.9653 260° West 447 514 28,000  Level Cleveland Center
09:55AM 42.9908 -78.1308 261° West 447 514 28,000  Level Cleveland Center
09:56AM 42.9711 -78.2992 261° West 447 514 28,000  Level Cleveland Center
09:57AM 42.9536 -78.4642 262° West 447 514 28,000  Level Cleveland Center
09:58AM 42.9314 -78.6294 260° West 447 514 28,000  Level Cleveland Center
09:59AM 42.9069 -78.7947 259° West 447 514 28,000  Level Cleveland Center
10:00AM 42.8864 -78.9594 260° West 447 514 28,000  Level Cleveland Center
10:01AM 42.8597 -79.1444 259° West 453 521 28,000  Level Cleveland Center
10:02AM 42.8347 -79.3119 259° West 453 521 28,000  Level Cleveland Center
10:03AM 42.8092 -79.4794 258° West 453 521 28,000  Level Cleveland Center
10:04AM 42.7858 -79.6439 259° West 453 521 28,000  Level Cleveland Center
10:05AM 42.7597 -79.8111 258° West 453 521 28,000  Level Cleveland Center
10:06AM 42.7464 -79.9811 264° West 453 521 28,000  Level Cleveland Center
10:07AM 42.7367 -80.1536 266° West 448 516 28,000  Level Cleveland Center
10:08AM 42.7308 -80.3231 267° West 453 521 28,000  Level Cleveland Center
10:09AM 42.7228 -80.4983 266° West 458 527 28,000  Level Cleveland Center
10:10AM 42.7164 -80.6483 267° West 458 527 28,000  Level Cleveland Center
10:11AM 42.7081 -80.8178 266° West 458 527 28,000  Level Cleveland Center
10:12AM 42.6950 -80.9842 264° West 458 527 28,000 -180 Level Cleveland Center
10:13AM 42.6756 -81.1536 261° West 458 527 27,700 -840 Descending Cleveland Center
10:14AM 42.6558 -81.3200 261° West 458 527 26,400 -1,320 Descending Cleveland Center
10:15AM 42.6381 -81.4806 261° West 441 507 25,100 -1,380 Descending Cleveland Center
10:16AM 42.6200 -81.6383 261° West 433 498 23,700 -1,380 Descending Cleveland Center
10:17AM 42.5997 -81.7903 260° West 421 484 22,400 -1,620 Descending Cleveland Center
10:18AM 42.5833 -81.9453 262° West 421 484 20,500 -2,100 Descending Cleveland Center
10:19AM 42.5628 -82.0914 259° West 409 471 18,200 -2,340 Descending Cleveland Center
10:20AM 42.5439 -82.2486 261° West 375 432 15,900 -2,160 Descending Cleveland Center
10:21AM 42.5297 -82.3639 261° West 384 442 13,900 -2,160 Descending Cleveland Center
10:21AM 42.5247 -82.4228 263° West 348 400 13,100 -1,920 Descending Cleveland Center
10:22AM 42.5153 -82.4931 260° West 369 425 12,000 -1,140 Descending Cleveland Center
10:22AM 42.5081 -82.5436 259° West 309 356 12,000 -600 Level Cleveland Center
10:23AM 42.4883 -82.5992 244° Southwest 331 381 11,400 -1,200 Descending Cleveland Center
10:23AM 42.4750 -82.6411 247° West 288 331 10,800 -1,440 Descending Cleveland Center
10:24AM 42.4553 -82.6939 243° Southwest 302 348 10,000 -1,500 Descending Cleveland Center
10:24AM 42.4422 -82.7356 247° West 268 308 9,300 -1,620 Descending Cleveland Center
10:25AM 42.4350 -82.7833 258° West 277 319 8,400 -1,680 Descending Cleveland Center
10:25AM 42.4342 -82.8253 268° West 254 292 7,600 -1,920 Descending Cleveland Center
10:26AM 42.4267 -82.8842 260° West 261 300 6,500 -1,620 Descending Cleveland Center
10:26AM 42.4175 -82.9289 254° West 254 292 6,000 -540 Descending Cleveland Center
10:27AM 42.4103 -82.9736 258° West 256 295 6,000  Level Cleveland Center
10:28AM 42.4069 -83.0297 265° West 255 293 6,000  Level Cleveland Center
10:28AM 42.4125 -83.0694 281° West 256 295 6,000  Level Cleveland Center
10:28AM 42.4219 -83.1147 286° West 229 264 6,000  Level Cleveland Center
10:29AM 42.4231 -83.1514 272° West 243 280 6,000 -300 Level Cleveland Center
10:29AM 42.4078 -83.1844 238° Southwest 172 198 5,700 -1,380 Descending Cleveland Center
10:31AM 42.3714 -83.2250 219° Southwest 184 212 4,100 -1,620 Descending Cleveland Center